Airport View

Enter AWOS ICAO identifier for current METAR.

ex. KFNL

KAPY 120555Z AUTO 00000KT 10SM CLR 06/03 A3038 RMK AO2 T00560030 10136 20056

12 Dec 2019 06:12

Frequency: 118.225

Phone: 956-765-4069

Other Area AWOS: MMNL - KHBV - KLRD - KBKS

TAF MMNL 120554Z 1206/1306 07008KT P6SM SKC FM121800 14006KT P6SM SKC BECMG 1303/1305 13004KT